sensor_id;sensor_type;location;lat;lon;timestamp;temperature;humidity
33943;DHT22;66763;47.856;17.462;2024-01-15T00:02:19;11.30;46.60
33943;DHT22;66763;47.856;17.462;2024-01-15T00:04:45;11.30;46.60
33943;DHT22;66763;47.856;17.462;2024-01-15T00:07:10;11.30;46.60
33943;DHT22;66763;47.856;17.462;2024-01-15T00:09:36;11.30;46.60
33943;DHT22;66763;47.856;17.462;2024-01-15T00:12:01;11.30;46.60
33943;DHT22;66763;47.856;17.462;2024-01-15T00:14:27;11.30;46.60
33943;DHT22;66763;47.856;17.462;2024-01-15T00:16:53;11.30;46.60
33943;DHT22;66763;47.856;17.462;2024-01-15T00:19:23;11.20;46.50
33943;DHT22;66763;47.856;17.462;2024-01-15T00:21:49;11.20;46.60
33943;DHT22;66763;47.856;17.462;2024-01-15T00:24:15;11.20;46.60
33943;DHT22;66763;47.856;17.462;2024-01-15T00:26:40;11.20;46.60
33943;DHT22;66763;47.856;17.462;2024-01-15T00:29:09;11.20;46.60
33943;DHT22;66763;47.856;17.462;2024-01-15T00:31:34;11.20;46.50
33943;DHT22;66763;47.856;17.462;2024-01-15T00:34:00;11.20;46.60
33943;DHT22;66763;47.856;17.462;2024-01-15T00:36:25;11.20;46.60
33943;DHT22;66763;47.856;17.462;2024-01-15T00:38:51;11.20;46.60
33943;DHT22;66763;47.856;17.462;2024-01-15T00:41:17;11.20;46.60
33943;DHT22;66763;47.856;17.462;2024-01-15T00:43:44;11.20;46.50
33943;DHT22;66763;47.856;17.462;2024-01-15T00:46:09;11.20;46.60
33943;DHT22;66763;47.856;17.462;2024-01-15T00:48:35;11.20;46.50
33943;DHT22;66763;47.856;17.462;2024-01-15T00:51:00;11.20;46.50
33943;DHT22;66763;47.856;17.462;2024-01-15T00:53:26;11.20;46.60
33943;DHT22;66763;47.856;17.462;2024-01-15T00:55:51;11.10;46.60
33943;DHT22;66763;47.856;17.462;2024-01-15T00:58:18;11.10;46.50
33943;DHT22;66763;47.856;17.462;2024-01-15T01:00:43;11.10;46.60
33943;DHT22;66763;47.856;17.462;2024-01-15T01:03:09;11.10;46.60
33943;DHT22;66763;47.856;17.462;2024-01-15T01:05:34;11.10;46.50
33943;DHT22;66763;47.856;17.462;2024-01-15T01:08:00;11.10;46.60
33943;DHT22;66763;47.856;17.462;2024-01-15T01:10:25;11.10;46.50
33943;DHT22;66763;47.856;17.462;2024-01-15T01:12:51;11.10;46.50
33943;DHT22;66763;47.856;17.462;2024-01-15T01:15:17;11.10;46.60
33943;DHT22;66763;47.856;17.462;2024-01-15T01:17:42;11.10;46.60
33943;DHT22;66763;47.856;17.462;2024-01-15T01:20:08;11.00;46.50
33943;DHT22;66763;47.856;17.462;2024-01-15T01:22:35;11.00;46.50
33943;DHT22;66763;47.856;17.462;2024-01-15T01:25:01;11.00;46.50
33943;DHT22;66763;47.856;17.462;2024-01-15T01:27:26;11.10;46.70
33943;DHT22;66763;47.856;17.462;2024-01-15T01:29:52;11.00;46.50
33943;DHT22;66763;47.856;17.462;2024-01-15T01:32:18;11.10;46.60
33943;DHT22;66763;47.856;17.462;2024-01-15T01:34:43;11.00;46.40
33943;DHT22;66763;47.856;17.462;2024-01-15T01:37:09;11.10;46.60
33943;DHT22;66763;47.856;17.462;2024-01-15T01:39:35;11.10;46.60
33943;DHT22;66763;47.856;17.462;2024-01-15T01:42:00;11.20;46.50
33943;DHT22;66763;47.856;17.462;2024-01-15T01:44:26;11.30;46.40
33943;DHT22;66763;47.856;17.462;2024-01-15T01:46:51;11.40;46.30
33943;DHT22;66763;47.856;17.462;2024-01-15T01:49:17;11.50;46.20
33943;DHT22;66763;47.856;17.462;2024-01-15T01:51:43;11.60;46.00
33943;DHT22;66763;47.856;17.462;2024-01-15T01:54:08;11.70;45.90
33943;DHT22;66763;47.856;17.462;2024-01-15T01:56:36;11.80;45.80
33943;DHT22;66763;47.856;17.462;2024-01-15T01:59:02;11.80;45.80
33943;DHT22;66763;47.856;17.462;2024-01-15T02:01:28;11.90;45.80
33943;DHT22;66763;47.856;17.462;2024-01-15T02:03:54;12.00;45.70
33943;DHT22;66763;47.856;17.462;2024-01-15T02:06:22;12.00;45.60
33943;DHT22;66763;47.856;17.462;2024-01-15T02:08:48;12.00;45.60
33943;DHT22;66763;47.856;17.462;2024-01-15T02:11:13;12.10;45.50
33943;DHT22;66763;47.856;17.462;2024-01-15T02:13:39;12.10;45.40
33943;DHT22;66763;47.856;17.462;2024-01-15T02:16:04;12.20;45.40
33943;DHT22;66763;47.856;17.462;2024-01-15T02:18:38;12.20;45.40
33943;DHT22;66763;47.856;17.462;2024-01-15T02:21:04;12.30;45.50
33943;DHT22;66763;47.856;17.462;2024-01-15T02:23:30;12.30;45.40
33943;DHT22;66763;47.856;17.462;2024-01-15T02:25:55;12.30;45.30
33943;DHT22;66763;47.856;17.462;2024-01-15T02:28:21;12.40;45.30
33943;DHT22;66763;47.856;17.462;2024-01-15T02:30:46;12.40;45.20
33943;DHT22;66763;47.856;17.462;2024-01-15T02:33:12;12.40;45.20
33943;DHT22;66763;47.856;17.462;2024-01-15T02:35:37;12.50;45.20
33943;DHT22;66763;47.856;17.462;2024-01-15T02:38:03;12.40;45.20
33943;DHT22;66763;47.856;17.462;2024-01-15T02:40:29;12.50;45.20
33943;DHT22;66763;47.856;17.462;2024-01-15T02:42:54;12.50;45.20
33943;DHT22;66763;47.856;17.462;2024-01-15T02:45:20;12.40;45.10
33943;DHT22;66763;47.856;17.462;2024-01-15T02:47:46;12.50;45.30
33943;DHT22;66763;47.856;17.462;2024-01-15T02:50:11;12.50;45.30
33943;DHT22;66763;47.856;17.462;2024-01-15T02:52:37;12.50;45.20
33943;DHT22;66763;47.856;17.462;2024-01-15T02:55:02;12.40;45.20
33943;DHT22;66763;47.856;17.462;2024-01-15T02:57:28;12.40;45.20
33943;DHT22;66763;47.856;17.462;2024-01-15T02:59:54;12.40;45.40
33943;DHT22;66763;47.856;17.462;2024-01-15T03:02:19;12.30;45.40
33943;DHT22;66763;47.856;17.462;2024-01-15T03:04:44;12.30;45.50
33943;DHT22;66763;47.856;17.462;2024-01-15T03:07:10;12.30;45.50
33943;DHT22;66763;47.856;17.462;2024-01-15T03:09:35;12.30;45.60
33943;DHT22;66763;47.856;17.462;2024-01-15T03:12:01;12.20;45.60
33943;DHT22;66763;47.856;17.462;2024-01-15T03:14:26;12.20;45.70
33943;DHT22;66763;47.856;17.462;2024-01-15T03:16:52;12.10;45.70
33943;DHT22;66763;47.856;17.462;2024-01-15T03:19:18;12.10;45.80
33943;DHT22;66763;47.856;17.462;2024-01-15T03:21:43;12.10;45.90
33943;DHT22;66763;47.856;17.462;2024-01-15T03:24:08;12.00;45.80
33943;DHT22;66763;47.856;17.462;2024-01-15T03:26:34;12.00;45.90
33943;DHT22;66763;47.856;17.462;2024-01-15T03:28:59;12.00;45.90
33943;DHT22;66763;47.856;17.462;2024-01-15T03:31:25;12.00;45.90
33943;DHT22;66763;47.856;17.462;2024-01-15T03:33:50;11.90;46.00
33943;DHT22;66763;47.856;17.462;2024-01-15T03:36:16;12.00;46.00
33943;DHT22;66763;47.856;17.462;2024-01-15T03:38:41;12.00;46.00
33943;DHT22;66763;47.856;17.462;2024-01-15T03:41:07;12.00;46.00
33943;DHT22;66763;47.856;17.462;2024-01-15T03:43:33;11.90;46.00
33943;DHT22;66763;47.856;17.462;2024-01-15T03:45:58;11.90;46.00
33943;DHT22;66763;47.856;17.462;2024-01-15T03:48:24;11.90;46.10
33943;DHT22;66763;47.856;17.462;2024-01-15T03:50:49;11.90;46.10
33943;DHT22;66763;47.856;17.462;2024-01-15T03:53:15;11.80;46.00
33943;DHT22;66763;47.856;17.462;2024-01-15T03:55:41;11.80;46.10
33943;DHT22;66763;47.856;17.462;2024-01-15T03:58:07;11.80;46.10
33943;DHT22;66763;47.856;17.462;2024-01-15T04:00:32;11.80;46.10
33943;DHT22;66763;47.856;17.462;2024-01-15T04:02:58;11.80;46.10
33943;DHT22;66763;47.856;17.462;2024-01-15T04:05:23;11.80;46.10
33943;DHT22;66763;47.856;17.462;2024-01-15T04:07:48;11.80;46.10
33943;DHT22;66763;47.856;17.462;2024-01-15T04:10:14;11.80;46.20
33943;DHT22;66763;47.856;17.462;2024-01-15T04:12:40;11.70;46.10
33943;DHT22;66763;47.856;17.462;2024-01-15T04:15:05;11.70;46.20
33943;DHT22;66763;47.856;17.462;2024-01-15T04:17:31;11.70;46.20
33943;DHT22;66763;47.856;17.462;2024-01-15T04:19:56;11.70;46.20
33943;DHT22;66763;47.856;17.462;2024-01-15T04:22:22;11.70;46.20
33943;DHT22;66763;47.856;17.462;2024-01-15T04:24:48;11.60;46.10
33943;DHT22;66763;47.856;17.462;2024-01-15T04:27:13;11.60;46.20
33943;DHT22;66763;47.856;17.462;2024-01-15T04:29:39;11.60;46.20
33943;DHT22;66763;47.856;17.462;2024-01-15T04:32:04;11.60;46.30
33943;DHT22;66763;47.856;17.462;2024-01-15T04:34:30;11.60;46.30
33943;DHT22;66763;47.856;17.462;2024-01-15T04:36:55;11.60;46.30
33943;DHT22;66763;47.856;17.462;2024-01-15T04:39:21;11.60;46.30
33943;DHT22;66763;47.856;17.462;2024-01-15T04:41:47;11.60;46.30
33943;DHT22;66763;47.856;17.462;2024-01-15T04:44:13;11.50;46.20
33943;DHT22;66763;47.856;17.462;2024-01-15T04:46:38;11.60;46.30
33943;DHT22;66763;47.856;17.462;2024-01-15T04:49:04;11.50;46.30
33943;DHT22;66763;47.856;17.462;2024-01-15T04:51:29;11.50;46.30
33943;DHT22;66763;47.856;17.462;2024-01-15T04:53:54;11.50;46.30
33943;DHT22;66763;47.856;17.462;2024-01-15T04:56:20;11.50;46.30
33943;DHT22;66763;47.856;17.462;2024-01-15T04:58:46;11.50;46.30
33943;DHT22;66763;47.856;17.462;2024-01-15T05:01:11;11.50;46.30
33943;DHT22;66763;47.856;17.462;2024-01-15T05:03:37;11.50;46.30
33943;DHT22;66763;47.856;17.462;2024-01-15T05:06:02;11.40;46.30
33943;DHT22;66763;47.856;17.462;2024-01-15T05:08:28;11.40;46.30
33943;DHT22;66763;47.856;17.462;2024-01-15T05:10:53;11.40;46.30
33943;DHT22;66763;47.856;17.462;2024-01-15T05:13:19;11.40;46.40
33943;DHT22;66763;47.856;17.462;2024-01-15T05:15:45;11.40;46.40
33943;DHT22;66763;47.856;17.462;2024-01-15T05:18:10;11.40;46.40
33943;DHT22;66763;47.856;17.462;2024-01-15T05:20:36;11.40;46.40
33943;DHT22;66763;47.856;17.462;2024-01-15T05:23:01;11.40;46.40
33943;DHT22;66763;47.856;17.462;2024-01-15T05:25:27;11.40;46.40
33943;DHT22;66763;47.856;17.462;2024-01-15T05:27:52;11.40;46.40
33943;DHT22;66763;47.856;17.462;2024-01-15T05:30:17;11.40;46.40
33943;DHT22;66763;47.856;17.462;2024-01-15T05:32:43;11.40;46.50
33943;DHT22;66763;47.856;17.462;2024-01-15T05:35:08;11.40;46.40
33943;DHT22;66763;47.856;17.462;2024-01-15T05:37:34;11.30;46.40
33943;DHT22;66763;47.856;17.462;2024-01-15T05:39:59;11.30;46.50
33943;DHT22;66763;47.856;17.462;2024-01-15T05:42:25;11.30;46.40
33943;DHT22;66763;47.856;17.462;2024-01-15T05:44:51;11.30;46.50
33943;DHT22;66763;47.856;17.462;2024-01-15T05:47:17;11.30;46.50
33943;DHT22;66763;47.856;17.462;2024-01-15T05:49:43;11.30;46.50
33943;DHT22;66763;47.856;17.462;2024-01-15T05:52:08;11.30;46.50
33943;DHT22;66763;47.856;17.462;2024-01-15T05:54:34;11.30;46.50
33943;DHT22;66763;47.856;17.462;2024-01-15T05:56:59;11.30;46.50
33943;DHT22;66763;47.856;17.462;2024-01-15T05:59:24;11.30;46.50
33943;DHT22;66763;47.856;17.462;2024-01-15T06:01:50;11.20;46.40
33943;DHT22;66763;47.856;17.462;2024-01-15T06:04:16;11.30;46.50
33943;DHT22;66763;47.856;17.462;2024-01-15T06:06:41;11.20;46.40
33943;DHT22;66763;47.856;17.462;2024-01-15T06:09:07;11.20;46.30
33943;DHT22;66763;47.856;17.462;2024-01-15T06:11:32;11.20;46.30
33943;DHT22;66763;47.856;17.462;2024-01-15T06:13:58;11.20;46.30
33943;DHT22;66763;47.856;17.462;2024-01-15T06:16:24;11.20;46.40
33943;DHT22;66763;47.856;17.462;2024-01-15T06:18:49;11.20;46.40
33943;DHT22;66763;47.856;17.462;2024-01-15T06:21:15;11.20;46.50
33943;DHT22;66763;47.856;17.462;2024-01-15T06:23:41;11.20;46.40
33943;DHT22;66763;47.856;17.462;2024-01-15T06:26:06;11.10;46.20
33943;DHT22;66763;47.856;17.462;2024-01-15T06:28:32;11.10;46.20
33943;DHT22;66763;47.856;17.462;2024-01-15T06:30:57;11.10;46.20
33943;DHT22;66763;47.856;17.462;2024-01-15T06:33:23;11.10;46.20
33943;DHT22;66763;47.856;17.462;2024-01-15T06:35:49;11.10;46.30
33943;DHT22;66763;47.856;17.462;2024-01-15T06:38:14;11.10;46.30
33943;DHT22;66763;47.856;17.462;2024-01-15T06:40:40;11.10;46.30
33943;DHT22;66763;47.856;17.462;2024-01-15T06:43:14;11.10;46.30
33943;DHT22;66763;47.856;17.462;2024-01-15T06:45:40;11.10;46.30
33943;DHT22;66763;47.856;17.462;2024-01-15T06:48:05;11.10;46.30
33943;DHT22;66763;47.856;17.462;2024-01-15T06:50:31;11.10;46.20
33943;DHT22;66763;47.856;17.462;2024-01-15T06:52:56;11.10;46.30
33943;DHT22;66763;47.856;17.462;2024-01-15T06:55:22;11.10;46.30
33943;DHT22;66763;47.856;17.462;2024-01-15T06:57:47;11.00;46.30
33943;DHT22;66763;47.856;17.462;2024-01-15T07:00:13;11.00;46.90
33943;DHT22;66763;47.856;17.462;2024-01-15T07:02:39;11.00;46.40
33943;DHT22;66763;47.856;17.462;2024-01-15T07:05:04;11.00;46.40
33943;DHT22;66763;47.856;17.462;2024-01-15T07:07:30;11.00;46.60
33943;DHT22;66763;47.856;17.462;2024-01-15T07:09:56;11.00;46.50
33943;DHT22;66763;47.856;17.462;2024-01-15T07:12:22;11.00;46.50
33943;DHT22;66763;47.856;17.462;2024-01-15T07:14:47;11.10;46.50
33943;DHT22;66763;47.856;17.462;2024-01-15T07:17:13;11.20;46.30
33943;DHT22;66763;47.856;17.462;2024-01-15T07:19:38;11.30;46.20
33943;DHT22;66763;47.856;17.462;2024-01-15T07:22:04;11.40;46.10
33943;DHT22;66763;47.856;17.462;2024-01-15T07:24:29;11.50;45.90
33943;DHT22;66763;47.856;17.462;2024-01-15T07:26:55;11.60;45.80
33943;DHT22;66763;47.856;17.462;2024-01-15T07:29:20;11.70;45.80
33943;DHT22;66763;47.856;17.462;2024-01-15T07:31:49;11.80;45.70
33943;DHT22;66763;47.856;17.462;2024-01-15T07:34:15;11.90;45.60
33943;DHT22;66763;47.856;17.462;2024-01-15T07:36:41;11.90;45.60
33943;DHT22;66763;47.856;17.462;2024-01-15T07:39:06;12.00;45.50
33943;DHT22;66763;47.856;17.462;2024-01-15T07:41:32;12.00;45.50
33943;DHT22;66763;47.856;17.462;2024-01-15T07:43:57;12.00;45.40
33943;DHT22;66763;47.856;17.462;2024-01-15T07:46:23;12.10;45.30
33943;DHT22;66763;47.856;17.462;2024-01-15T07:48:50;12.20;45.30
33943;DHT22;66763;47.856;17.462;2024-01-15T07:51:21;12.20;45.30
33943;DHT22;66763;47.856;17.462;2024-01-15T07:53:47;12.20;45.30
33943;DHT22;66763;47.856;17.462;2024-01-15T07:56:12;12.30;45.30
33943;DHT22;66763;47.856;17.462;2024-01-15T07:58:38;12.30;45.20
33943;DHT22;66763;47.856;17.462;2024-01-15T08:01:03;12.30;45.20
33943;DHT22;66763;47.856;17.462;2024-01-15T08:03:29;12.40;45.20
33943;DHT22;66763;47.856;17.462;2024-01-15T08:05:55;12.40;45.20
33943;DHT22;66763;47.856;17.462;2024-01-15T08:08:23;12.40;45.10
33943;DHT22;66763;47.856;17.462;2024-01-15T08:10:48;12.50;45.20
33943;DHT22;66763;47.856;17.462;2024-01-15T08:13:14;12.40;45.00
33943;DHT22;66763;47.856;17.462;2024-01-15T08:15:40;12.50;45.10
33943;DHT22;66763;47.856;17.462;2024-01-15T08:18:05;12.50;45.10
33943;DHT22;66763;47.856;17.462;2024-01-15T08:20:31;12.50;45.10
33943;DHT22;66763;47.856;17.462;2024-01-15T08:22:57;12.50;45.10
33943;DHT22;66763;47.856;17.462;2024-01-15T08:25:22;12.50;45.20
33943;DHT22;66763;47.856;17.462;2024-01-15T08:27:48;12.50;45.20
33943;DHT22;66763;47.856;17.462;2024-01-15T08:30:13;12.40;45.20
33943;DHT22;66763;47.856;17.462;2024-01-15T08:32:39;12.40;45.30
33943;DHT22;66763;47.856;17.462;2024-01-15T08:35:10;12.40;45.40
33943;DHT22;66763;47.856;17.462;2024-01-15T08:37:36;12.30;45.40
33943;DHT22;66763;47.856;17.462;2024-01-15T08:40:02;12.30;45.60
33943;DHT22;66763;47.856;17.462;2024-01-15T08:42:28;12.30;45.60
33943;DHT22;66763;47.856;17.462;2024-01-15T08:44:54;12.20;45.70
33943;DHT22;66763;47.856;17.462;2024-01-15T08:47:19;12.10;45.70
33943;DHT22;66763;47.856;17.462;2024-01-15T08:49:45;12.10;45.80
33943;DHT22;66763;47.856;17.462;2024-01-15T08:52:11;12.10;45.90
33943;DHT22;66763;47.856;17.462;2024-01-15T08:54:37;12.10;45.90
33943;DHT22;66763;47.856;17.462;2024-01-15T08:57:02;12.00;46.00
33943;DHT22;66763;47.856;17.462;2024-01-15T08:59:28;12.00;46.10
33943;DHT22;66763;47.856;17.462;2024-01-15T09:01:53;12.00;46.10
33943;DHT22;66763;47.856;17.462;2024-01-15T09:04:19;12.00;46.10
33943;DHT22;66763;47.856;17.462;2024-01-15T09:06:45;12.00;46.20
33943;DHT22;66763;47.856;17.462;2024-01-15T09:09:12;11.90;46.20
33943;DHT22;66763;47.856;17.462;2024-01-15T09:11:38;11.90;46.20
33943;DHT22;66763;47.856;17.462;2024-01-15T09:14:04;12.00;46.20
33943;DHT22;66763;47.856;17.462;2024-01-15T09:16:29;11.90;46.30
33943;DHT22;66763;47.856;17.462;2024-01-15T09:18:54;11.90;46.30
33943;DHT22;66763;47.856;17.462;2024-01-15T09:21:22;11.90;46.30
33943;DHT22;66763;47.856;17.462;2024-01-15T09:23:49;11.90;46.40
33943;DHT22;66763;47.856;17.462;2024-01-15T09:26:15;11.90;46.40
33943;DHT22;66763;47.856;17.462;2024-01-15T09:28:40;11.80;46.30
33943;DHT22;66763;47.856;17.462;2024-01-15T09:31:06;11.80;46.40
33943;DHT22;66763;47.856;17.462;2024-01-15T09:33:31;11.80;46.40
33943;DHT22;66763;47.856;17.462;2024-01-15T09:35:57;11.80;46.40
33943;DHT22;66763;47.856;17.462;2024-01-15T09:38:22;11.80;46.50
33943;DHT22;66763;47.856;17.462;2024-01-15T09:40:49;11.80;46.50
33943;DHT22;66763;47.856;17.462;2024-01-15T09:43:14;11.70;46.50
33943;DHT22;66763;47.856;17.462;2024-01-15T09:45:41;11.80;46.50
33943;DHT22;66763;47.856;17.462;2024-01-15T09:48:07;11.70;46.50
33943;DHT22;66763;47.856;17.462;2024-01-15T09:50:32;11.70;46.50
33943;DHT22;66763;47.856;17.462;2024-01-15T09:52:58;11.70;46.50
33943;DHT22;66763;47.856;17.462;2024-01-15T09:55:23;11.70;46.60
33943;DHT22;66763;47.856;17.462;2024-01-15T09:57:49;11.70;46.60
33943;DHT22;66763;47.856;17.462;2024-01-15T10:00:18;11.60;46.50
33943;DHT22;66763;47.856;17.462;2024-01-15T10:02:44;11.70;46.60
33943;DHT22;66763;47.856;17.462;2024-01-15T10:05:10;11.70;46.70
33943;DHT22;66763;47.856;17.462;2024-01-15T10:07:36;11.60;46.60
33943;DHT22;66763;47.856;17.462;2024-01-15T10:10:02;11.60;46.70
33943;DHT22;66763;47.856;17.462;2024-01-15T10:12:32;11.60;46.70
33943;DHT22;66763;47.856;17.462;2024-01-15T10:14:58;11.60;46.70
33943;DHT22;66763;47.856;17.462;2024-01-15T10:17:24;11.50;46.70
33943;DHT22;66763;47.856;17.462;2024-01-15T10:19:49;11.50;46.70
33943;DHT22;66763;47.856;17.462;2024-01-15T10:22:15;11.50;46.80
33943;DHT22;66763;47.856;17.462;2024-01-15T10:24:41;11.50;46.80
33943;DHT22;66763;47.856;17.462;2024-01-15T10:27:07;11.50;46.80
33943;DHT22;66763;47.856;17.462;2024-01-15T10:29:33;11.50;46.80
33943;DHT22;66763;47.856;17.462;2024-01-15T10:31:58;11.50;46.80
33943;DHT22;66763;47.856;17.462;2024-01-15T10:34:24;11.50;46.80
33943;DHT22;66763;47.856;17.462;2024-01-15T10:36:50;11.50;46.90
33943;DHT22;66763;47.856;17.462;2024-01-15T10:39:23;11.40;47.40
33943;DHT22;66763;47.856;17.462;2024-01-15T10:41:51;11.40;46.80
33943;DHT22;66763;47.856;17.462;2024-01-15T10:44:17;11.40;46.80
33943;DHT22;66763;47.856;17.462;2024-01-15T10:46:43;11.40;46.80
33943;DHT22;66763;47.856;17.462;2024-01-15T10:49:08;11.40;46.90
33943;DHT22;66763;47.856;17.462;2024-01-15T10:51:36;11.40;47.00
33943;DHT22;66763;47.856;17.462;2024-01-15T10:54:01;11.40;47.00
33943;DHT22;66763;47.856;17.462;2024-01-15T10:56:27;11.40;47.00
33943;DHT22;66763;47.856;17.462;2024-01-15T10:58:53;11.40;47.00
33943;DHT22;66763;47.856;17.462;2024-01-15T11:01:19;11.40;47.00
33943;DHT22;66763;47.856;17.462;2024-01-15T11:03:45;11.40;47.00
33943;DHT22;66763;47.856;17.462;2024-01-15T11:06:17;11.40;47.00
33943;DHT22;66763;47.856;17.462;2024-01-15T11:08:48;11.40;47.00
33943;DHT22;66763;47.856;17.462;2024-01-15T11:11:15;11.40;47.00
33943;DHT22;66763;47.856;17.462;2024-01-15T11:13:41;11.40;47.00
33943;DHT22;66763;47.856;17.462;2024-01-15T11:16:13;11.40;47.00
33943;DHT22;66763;47.856;17.462;2024-01-15T11:23:45;11.40;47.00
33943;DHT22;66763;47.856;17.462;2024-01-15T11:29:05;11.30;47.00
33943;DHT22;66763;47.856;17.462;2024-01-15T11:34:05;11.30;47.00
33943;DHT22;66763;47.856;17.462;2024-01-15T11:41:57;11.30;47.10
33943;DHT22;66763;47.856;17.462;2024-01-15T11:44:22;11.30;47.10
33943;DHT22;66763;47.856;17.462;2024-01-15T11:49:28;11.30;47.10
33943;DHT22;66763;47.856;17.462;2024-01-15T11:52:00;11.20;47.10
33943;DHT22;66763;47.856;17.462;2024-01-15T11:54:26;11.20;47.10
33943;DHT22;66763;47.856;17.462;2024-01-15T11:56:54;11.20;47.20
33943;DHT22;66763;47.856;17.462;2024-01-15T11:59:21;11.20;47.20
33943;DHT22;66763;47.856;17.462;2024-01-15T12:01:46;11.20;47.20
33943;DHT22;66763;47.856;17.462;2024-01-15T12:04:12;11.20;47.20
33943;DHT22;66763;47.856;17.462;2024-01-15T12:06:38;11.20;47.20
33943;DHT22;66763;47.856;17.462;2024-01-15T12:09:05;11.20;47.30
33943;DHT22;66763;47.856;17.462;2024-01-15T12:11:31;11.10;47.20
33943;DHT22;66763;47.856;17.462;2024-01-15T12:13:58;11.10;47.20
33943;DHT22;66763;47.856;17.462;2024-01-15T12:16:24;11.20;47.40
33943;DHT22;66763;47.856;17.462;2024-01-15T12:18:50;11.10;47.30
33943;DHT22;66763;47.856;17.462;2024-01-15T12:21:15;11.10;47.30
33943;DHT22;66763;47.856;17.462;2024-01-15T12:23:41;11.20;47.40
33943;DHT22;66763;47.856;17.462;2024-01-15T12:26:06;11.10;47.30
33943;DHT22;66763;47.856;17.462;2024-01-15T12:28:32;11.10;47.30
33943;DHT22;66763;47.856;17.462;2024-01-15T12:30:57;11.10;47.30
33943;DHT22;66763;47.856;17.462;2024-01-15T12:33:25;11.10;47.30
33943;DHT22;66763;47.856;17.462;2024-01-15T12:35:53;11.20;47.30
33943;DHT22;66763;47.856;17.462;2024-01-15T12:38:19;11.10;47.30
33943;DHT22;66763;47.856;17.462;2024-01-15T12:40:45;11.10;47.20
33943;DHT22;66763;47.856;17.462;2024-01-15T12:43:11;11.10;47.20
33943;DHT22;66763;47.856;17.462;2024-01-15T12:45:37;11.20;47.20
33943;DHT22;66763;47.856;17.462;2024-01-15T12:48:03;11.20;47.20
33943;DHT22;66763;47.856;17.462;2024-01-15T12:50:29;11.20;47.20
33943;DHT22;66763;47.856;17.462;2024-01-15T12:52:54;11.10;47.20
33943;DHT22;66763;47.856;17.462;2024-01-15T12:55:20;11.10;47.20
33943;DHT22;66763;47.856;17.462;2024-01-15T12:57:45;11.10;47.20
33943;DHT22;66763;47.856;17.462;2024-01-15T13:00:11;11.20;47.20
33943;DHT22;66763;47.856;17.462;2024-01-15T13:02:40;11.20;47.20
33943;DHT22;66763;47.856;17.462;2024-01-15T13:05:07;11.20;47.30
33943;DHT22;66763;47.856;17.462;2024-01-15T13:07:33;11.20;47.30
33943;DHT22;66763;47.856;17.462;2024-01-15T13:09:59;11.10;47.20
33943;DHT22;66763;47.856;17.462;2024-01-15T13:12:24;11.20;47.20
33943;DHT22;66763;47.856;17.462;2024-01-15T13:14:50;11.10;47.20
33943;DHT22;66763;47.856;17.462;2024-01-15T13:17:15;11.10;47.20
33943;DHT22;66763;47.856;17.462;2024-01-15T13:19:41;11.10;47.20
33943;DHT22;66763;47.856;17.462;2024-01-15T13:22:07;11.10;47.20
33943;DHT22;66763;47.856;17.462;2024-01-15T13:24:34;11.10;47.30
33943;DHT22;66763;47.856;17.462;2024-01-15T13:27:02;11.10;47.30
33943;DHT22;66763;47.856;17.462;2024-01-15T13:29:27;11.10;47.30
33943;DHT22;66763;47.856;17.462;2024-01-15T13:31:53;11.10;47.30
33943;DHT22;66763;47.856;17.462;2024-01-15T13:34:18;11.10;47.20
33943;DHT22;66763;47.856;17.462;2024-01-15T13:36:44;11.10;47.30
33943;DHT22;66763;47.856;17.462;2024-01-15T13:39:10;11.10;47.20
33943;DHT22;66763;47.856;17.462;2024-01-15T13:41:35;11.00;47.20
33943;DHT22;66763;47.856;17.462;2024-01-15T13:44:01;11.10;47.20
33943;DHT22;66763;47.856;17.462;2024-01-15T13:46:26;11.10;47.20
33943;DHT22;66763;47.856;17.462;2024-01-15T13:48:52;11.00;47.20
33943;DHT22;66763;47.856;17.462;2024-01-15T13:51:18;11.10;47.30
33943;DHT22;66763;47.856;17.462;2024-01-15T13:53:44;11.10;47.30
33943;DHT22;66763;47.856;17.462;2024-01-15T13:56:09;11.20;47.20
33943;DHT22;66763;47.856;17.462;2024-01-15T13:58:36;11.20;46.90
33943;DHT22;66763;47.856;17.462;2024-01-15T14:01:01;11.40;47.10
33943;DHT22;66763;47.856;17.462;2024-01-15T14:03:29;11.40;46.80
33943;DHT22;66763;47.856;17.462;2024-01-15T14:05:55;11.50;46.80
33943;DHT22;66763;47.856;17.462;2024-01-15T14:08:20;11.60;46.80
33943;DHT22;66763;47.856;17.462;2024-01-15T14:10:45;11.70;46.60
33943;DHT22;66763;47.856;17.462;2024-01-15T14:13:11;11.80;46.60
33943;DHT22;66763;47.856;17.462;2024-01-15T14:15:36;11.90;46.60
33943;DHT22;66763;47.856;17.462;2024-01-15T14:18:02;11.90;46.50
33943;DHT22;66763;47.856;17.462;2024-01-15T14:20:28;12.00;46.40
33943;DHT22;66763;47.856;17.462;2024-01-15T14:22:53;12.00;46.30
33943;DHT22;66763;47.856;17.462;2024-01-15T14:25:19;12.10;46.20
33943;DHT22;66763;47.856;17.462;2024-01-15T14:27:45;12.20;46.20
33943;DHT22;66763;47.856;17.462;2024-01-15T14:30:10;12.20;46.30
33943;DHT22;66763;47.856;17.462;2024-01-15T14:32:38;12.20;46.10
33943;DHT22;66763;47.856;17.462;2024-01-15T14:35:04;12.30;46.10
33943;DHT22;66763;47.856;17.462;2024-01-15T14:37:30;12.30;46.00
33943;DHT22;66763;47.856;17.462;2024-01-15T14:39:56;12.30;45.90
33943;DHT22;66763;47.856;17.462;2024-01-15T14:42:21;12.40;45.90
33943;DHT22;66763;47.856;17.462;2024-01-15T14:44:47;12.40;45.90
33943;DHT22;66763;47.856;17.462;2024-01-15T14:47:13;12.40;45.90
33943;DHT22;66763;47.856;17.462;2024-01-15T14:49:38;12.50;45.90
33943;DHT22;66763;47.856;17.462;2024-01-15T14:52:04;12.50;45.90
33943;DHT22;66763;47.856;17.462;2024-01-15T14:54:29;12.50;45.90
33943;DHT22;66763;47.856;17.462;2024-01-15T14:56:55;12.50;45.80
33943;DHT22;66763;47.856;17.462;2024-01-15T14:59:22;12.50;45.80
33943;DHT22;66763;47.856;17.462;2024-01-15T15:01:47;12.50;45.80
33943;DHT22;66763;47.856;17.462;2024-01-15T15:04:13;12.50;45.90
33943;DHT22;66763;47.856;17.462;2024-01-15T15:06:38;12.50;45.90
33943;DHT22;66763;47.856;17.462;2024-01-15T15:09:04;12.40;45.90
33943;DHT22;66763;47.856;17.462;2024-01-15T15:11:35;12.40;46.00
33943;DHT22;66763;47.856;17.462;2024-01-15T15:14:00;12.40;46.00
33943;DHT22;66763;47.856;17.462;2024-01-15T15:16:26;12.30;46.10
33943;DHT22;66763;47.856;17.462;2024-01-15T15:18:52;12.30;46.00
33943;DHT22;66763;47.856;17.462;2024-01-15T15:21:18;12.30;46.10
33943;DHT22;66763;47.856;17.462;2024-01-15T15:23:43;12.30;46.10
33943;DHT22;66763;47.856;17.462;2024-01-15T15:26:09;12.20;46.30